sensor_id;sensor_type;location;lat;lon;timestamp;pressure;altitude;pressure_sealevel;temperature;humidity
41686;BME280;27370;42.764;23.432;2023-07-28T00:00:12;95675.84;;;11.10;100.00
41686;BME280;27370;42.764;23.432;2023-07-28T00:02:40;95675.66;;;11.24;100.00
41686;BME280;27370;42.764;23.432;2023-07-28T00:05:05;95668.59;;;11.30;100.00
41686;BME280;27370;42.764;23.432;2023-07-28T00:07:31;95667.16;;;11.22;100.00
41686;BME280;27370;42.764;23.432;2023-07-28T00:09:59;95678.38;;;11.24;100.00
41686;BME280;27370;42.764;23.432;2023-07-28T00:12:24;95676.13;;;11.19;100.00
41686;BME280;27370;42.764;23.432;2023-07-28T00:14:50;95682.34;;;11.16;100.00
41686;BME280;27370;42.764;23.432;2023-07-28T00:17:15;95684.00;;;11.10;100.00
41686;BME280;27370;42.764;23.432;2023-07-28T00:19:41;95693.59;;;11.14;100.00
41686;BME280;27370;42.764;23.432;2023-07-28T00:22:06;95684.69;;;11.14;100.00
41686;BME280;27370;42.764;23.432;2023-07-28T00:24:32;95691.66;;;11.15;100.00
41686;BME280;27370;42.764;23.432;2023-07-28T00:26:58;95681.72;;;11.04;100.00
41686;BME280;27370;42.764;23.432;2023-07-28T00:29:23;95665.16;;;10.99;100.00
41686;BME280;27370;42.764;23.432;2023-07-28T00:31:49;95661.31;;;10.66;100.00
41686;BME280;27370;42.764;23.432;2023-07-28T00:34:14;95669.53;;;10.21;100.00
41686;BME280;27370;42.764;23.432;2023-07-28T00:36:39;95669.13;;;10.23;100.00
41686;BME280;27370;42.764;23.432;2023-07-28T00:39:06;95665.94;;;10.31;100.00
41686;BME280;27370;42.764;23.432;2023-07-28T00:41:32;95670.97;;;10.29;100.00
41686;BME280;27370;42.764;23.432;2023-07-28T00:43:57;95675.13;;;10.41;100.00
41686;BME280;27370;42.764;23.432;2023-07-28T00:46:23;95676.09;;;10.58;100.00
41686;BME280;27370;42.764;23.432;2023-07-28T00:48:49;95678.44;;;10.56;100.00
41686;BME280;27370;42.764;23.432;2023-07-28T00:51:15;95680.88;;;10.47;100.00
41686;BME280;27370;42.764;23.432;2023-07-28T00:53:41;95688.53;;;10.52;100.00
41686;BME280;27370;42.764;23.432;2023-07-28T00:56:07;95675.72;;;10.56;100.00
41686;BME280;27370;42.764;23.432;2023-07-28T00:58:32;95670.63;;;10.61;100.00
41686;BME280;27370;42.764;23.432;2023-07-28T01:00:58;95680.53;;;10.41;100.00
41686;BME280;27370;42.764;23.432;2023-07-28T01:03:24;95685.69;;;10.62;100.00
41686;BME280;27370;42.764;23.432;2023-07-28T01:11:26;95673.88;;;10.49;100.00
41686;BME280;27370;42.764;23.432;2023-07-28T01:13:51;95669.84;;;10.27;100.00
41686;BME280;27370;42.764;23.432;2023-07-28T01:16:17;95674.25;;;10.06;100.00
41686;BME280;27370;42.764;23.432;2023-07-28T01:18:43;95673.94;;;10.01;100.00
41686;BME280;27370;42.764;23.432;2023-07-28T01:21:15;95683.34;;;10.30;100.00
41686;BME280;27370;42.764;23.432;2023-07-28T01:24:22;95687.09;;;10.40;100.00
41686;BME280;27370;42.764;23.432;2023-07-28T01:26:51;95691.75;;;10.39;100.00
41686;BME280;27370;42.764;23.432;2023-07-28T01:29:17;95686.97;;;10.54;100.00
41686;BME280;27370;42.764;23.432;2023-07-28T01:31:46;95684.78;;;10.42;100.00
41686;BME280;27370;42.764;23.432;2023-07-28T01:34:13;95684.91;;;10.65;100.00
41686;BME280;27370;42.764;23.432;2023-07-28T01:36:38;95678.97;;;10.40;100.00
41686;BME280;27370;42.764;23.432;2023-07-28T01:39:04;95678.69;;;10.31;100.00
41686;BME280;27370;42.764;23.432;2023-07-28T01:41:29;95685.69;;;10.28;100.00
41686;BME280;27370;42.764;23.432;2023-07-28T01:43:55;95681.06;;;10.25;100.00
41686;BME280;27370;42.764;23.432;2023-07-28T01:46:21;95679.03;;;10.36;100.00
41686;BME280;27370;42.764;23.432;2023-07-28T01:48:47;95669.81;;;10.30;100.00
41686;BME280;27370;42.764;23.432;2023-07-28T01:51:12;95679.09;;;10.29;100.00
41686;BME280;27370;42.764;23.432;2023-07-28T01:53:38;95688.31;;;10.35;100.00
41686;BME280;27370;42.764;23.432;2023-07-28T01:56:03;95689.44;;;10.38;100.00
41686;BME280;27370;42.764;23.432;2023-07-28T01:58:29;95677.63;;;10.18;100.00
41686;BME280;27370;42.764;23.432;2023-07-28T02:00:54;95671.84;;;10.16;100.00
41686;BME280;27370;42.764;23.432;2023-07-28T02:03:20;95686.03;;;10.30;100.00
41686;BME280;27370;42.764;23.432;2023-07-28T02:05:45;95685.00;;;10.21;100.00
41686;BME280;27370;42.764;23.432;2023-07-28T02:08:11;95676.97;;;10.06;100.00
41686;BME280;27370;42.764;23.432;2023-07-28T02:10:36;95675.84;;;10.04;100.00
41686;BME280;27370;42.764;23.432;2023-07-28T02:13:02;95678.13;;;10.05;100.00
41686;BME280;27370;42.764;23.432;2023-07-28T02:15:28;95676.94;;;10.10;100.00
41686;BME280;27370;42.764;23.432;2023-07-28T02:17:53;95680.34;;;10.18;100.00
41686;BME280;27370;42.764;23.432;2023-07-28T02:20:19;95675.00;;;10.10;100.00
41686;BME280;27370;42.764;23.432;2023-07-28T02:22:44;95684.22;;;10.17;100.00
41686;BME280;27370;42.764;23.432;2023-07-28T02:25:10;95693.19;;;10.06;100.00
41686;BME280;27370;42.764;23.432;2023-07-28T02:27:36;95688.94;;;10.09;100.00
41686;BME280;27370;42.764;23.432;2023-07-28T02:30:04;95698.25;;;10.04;100.00
41686;BME280;27370;42.764;23.432;2023-07-28T02:32:29;95686.47;;;9.80;100.00
41686;BME280;27370;42.764;23.432;2023-07-28T02:34:55;95692.91;;;9.94;100.00
41686;BME280;27370;42.764;23.432;2023-07-28T02:37:21;95688.34;;;9.87;100.00
41686;BME280;27370;42.764;23.432;2023-07-28T02:39:46;95694.88;;;9.90;100.00
41686;BME280;27370;42.764;23.432;2023-07-28T02:42:13;95698.84;;;9.78;100.00
41686;BME280;27370;42.764;23.432;2023-07-28T02:44:39;95689.59;;;9.75;100.00
41686;BME280;27370;42.764;23.432;2023-07-28T02:47:05;95696.16;;;9.78;100.00
41686;BME280;27370;42.764;23.432;2023-07-28T02:49:31;95683.81;;;9.77;100.00
41686;BME280;27370;42.764;23.432;2023-07-28T02:51:56;95697.72;;;9.75;100.00
41686;BME280;27370;42.764;23.432;2023-07-28T02:54:22;95696.72;;;9.55;100.00
41686;BME280;27370;42.764;23.432;2023-07-28T02:56:49;95698.91;;;9.67;100.00
41686;BME280;27370;42.764;23.432;2023-07-28T02:59:15;95685.69;;;9.80;100.00
41686;BME280;27370;42.764;23.432;2023-07-28T03:01:40;95685.34;;;9.78;100.00
41686;BME280;27370;42.764;23.432;2023-07-28T03:04:06;95693.09;;;9.72;100.00
41686;BME280;27370;42.764;23.432;2023-07-28T03:06:51;95703.50;;;9.77;100.00
41686;BME280;27370;42.764;23.432;2023-07-28T03:09:16;95691.44;;;9.86;100.00
41686;BME280;27370;42.764;23.432;2023-07-28T03:11:49;95694.56;;;9.84;100.00
41686;BME280;27370;42.764;23.432;2023-07-28T03:14:14;95700.34;;;9.82;100.00
41686;BME280;27370;42.764;23.432;2023-07-28T03:16:41;95696.97;;;9.68;100.00
41686;BME280;27370;42.764;23.432;2023-07-28T03:19:07;95688.38;;;9.83;100.00
41686;BME280;27370;42.764;23.432;2023-07-28T03:21:32;95707.31;;;9.83;100.00
41686;BME280;27370;42.764;23.432;2023-07-28T03:23:58;95703.09;;;9.79;100.00
41686;BME280;27370;42.764;23.432;2023-07-28T03:26:24;95702.22;;;9.89;100.00
41686;BME280;27370;42.764;23.432;2023-07-28T03:28:49;95706.16;;;9.81;100.00
41686;BME280;27370;42.764;23.432;2023-07-28T03:31:14;95716.56;;;9.86;100.00
41686;BME280;27370;42.764;23.432;2023-07-28T03:33:40;95713.00;;;9.96;100.00
41686;BME280;27370;42.764;23.432;2023-07-28T03:36:05;95717.72;;;9.85;100.00
41686;BME280;27370;42.764;23.432;2023-07-28T03:38:33;95729.66;;;9.91;100.00
41686;BME280;27370;42.764;23.432;2023-07-28T03:40:58;95708.47;;;9.82;100.00
41686;BME280;27370;42.764;23.432;2023-07-28T03:43:24;95716.72;;;9.65;100.00
41686;BME280;27370;42.764;23.432;2023-07-28T03:45:49;95718.00;;;9.42;100.00
41686;BME280;27370;42.764;23.432;2023-07-28T03:48:15;95721.44;;;9.50;100.00
41686;BME280;27370;42.764;23.432;2023-07-28T03:50:40;95735.22;;;9.73;100.00
41686;BME280;27370;42.764;23.432;2023-07-28T03:53:06;95732.28;;;10.02;100.00
41686;BME280;27370;42.764;23.432;2023-07-28T03:55:32;95735.19;;;10.25;100.00
41686;BME280;27370;42.764;23.432;2023-07-28T03:57:57;95735.84;;;10.36;100.00
41686;BME280;27370;42.764;23.432;2023-07-28T04:00:23;95736.97;;;10.42;100.00
41686;BME280;27370;42.764;23.432;2023-07-28T04:02:48;95727.03;;;10.29;100.00
41686;BME280;27370;42.764;23.432;2023-07-28T04:05:14;95726.69;;;10.27;100.00
41686;BME280;27370;42.764;23.432;2023-07-28T04:07:39;95715.75;;;10.37;100.00
41686;BME280;27370;42.764;23.432;2023-07-28T04:10:05;95727.84;;;10.67;100.00
41686;BME280;27370;42.764;23.432;2023-07-28T04:12:31;95734.47;;;10.96;100.00
41686;BME280;27370;42.764;23.432;2023-07-28T04:14:56;95721.19;;;11.05;100.00
41686;BME280;27370;42.764;23.432;2023-07-28T04:17:22;95718.59;;;11.25;100.00
41686;BME280;27370;42.764;23.432;2023-07-28T04:19:48;95725.69;;;11.46;100.00
41686;BME280;27370;42.764;23.432;2023-07-28T04:22:13;95726.63;;;11.63;100.00
41686;BME280;27370;42.764;23.432;2023-07-28T04:24:41;95718.66;;;11.79;100.00
41686;BME280;27370;42.764;23.432;2023-07-28T04:27:07;95703.44;;;11.85;100.00
41686;BME280;27370;42.764;23.432;2023-07-28T04:29:32;95718.69;;;12.03;100.00
41686;BME280;27370;42.764;23.432;2023-07-28T04:31:58;95714.25;;;12.12;100.00
41686;BME280;27370;42.764;23.432;2023-07-28T04:34:28;95710.81;;;12.32;100.00
41686;BME280;27370;42.764;23.432;2023-07-28T04:37:20;95716.72;;;12.50;100.00
41686;BME280;27370;42.764;23.432;2023-07-28T04:39:57;95712.28;;;12.79;100.00
41686;BME280;27370;42.764;23.432;2023-07-28T04:42:24;95715.19;;;12.88;100.00
41686;BME280;27370;42.764;23.432;2023-07-28T04:44:50;95717.22;;;13.04;100.00
41686;BME280;27370;42.764;23.432;2023-07-28T04:47:17;95721.56;;;13.22;100.00
41686;BME280;27370;42.764;23.432;2023-07-28T04:49:43;95711.44;;;13.42;100.00
41686;BME280;27370;42.764;23.432;2023-07-28T04:52:08;95711.47;;;13.58;100.00
41686;BME280;27370;42.764;23.432;2023-07-28T04:54:52;95710.13;;;13.66;100.00
41686;BME280;27370;42.764;23.432;2023-07-28T04:57:18;95709.78;;;13.81;100.00
41686;BME280;27370;42.764;23.432;2023-07-28T04:59:45;95718.38;;;13.95;100.00
41686;BME280;27370;42.764;23.432;2023-07-28T05:02:10;95710.13;;;14.15;100.00
41686;BME280;27370;42.764;23.432;2023-07-28T05:04:36;95710.53;;;14.30;100.00
41686;BME280;27370;42.764;23.432;2023-07-28T05:07:03;95712.22;;;14.40;100.00
41686;BME280;27370;42.764;23.432;2023-07-28T05:09:29;95713.19;;;14.50;100.00
41686;BME280;27370;42.764;23.432;2023-07-28T05:11:55;95714.84;;;14.89;100.00
41686;BME280;27370;42.764;23.432;2023-07-28T05:14:20;95714.91;;;15.01;100.00
41686;BME280;27370;42.764;23.432;2023-07-28T05:16:46;95709.13;;;15.12;100.00
41686;BME280;27370;42.764;23.432;2023-07-28T05:19:27;95705.34;;;15.22;100.00
41686;BME280;27370;42.764;23.432;2023-07-28T05:22:25;95706.41;;;15.67;100.00
41686;BME280;27370;42.764;23.432;2023-07-28T05:24:53;95697.56;;;15.63;100.00
41686;BME280;27370;42.764;23.432;2023-07-28T05:27:19;95699.22;;;15.85;100.00
41686;BME280;27370;42.764;23.432;2023-07-28T05:29:46;95700.78;;;16.21;100.00
41686;BME280;27370;42.764;23.432;2023-07-28T05:32:12;95707.44;;;16.20;100.00
41686;BME280;27370;42.764;23.432;2023-07-28T05:34:56;95702.47;;;15.93;100.00
41686;BME280;27370;42.764;23.432;2023-07-28T05:37:21;95708.34;;;16.04;100.00
41686;BME280;27370;42.764;23.432;2023-07-28T05:39:47;95695.28;;;15.86;100.00
41686;BME280;27370;42.764;23.432;2023-07-28T05:42:12;95709.00;;;15.83;100.00
41686;BME280;27370;42.764;23.432;2023-07-28T05:44:37;95702.88;;;16.04;100.00
41686;BME280;27370;42.764;23.432;2023-07-28T05:47:03;95697.31;;;16.08;100.00
41686;BME280;27370;42.764;23.432;2023-07-28T05:49:30;95698.16;;;16.30;100.00
41686;BME280;27370;42.764;23.432;2023-07-28T05:51:56;95697.47;;;16.39;100.00
41686;BME280;27370;42.764;23.432;2023-07-28T05:54:21;95694.00;;;16.26;100.00
41686;BME280;27370;42.764;23.432;2023-07-28T05:56:47;95680.34;;;16.60;100.00
41686;BME280;27370;42.764;23.432;2023-07-28T05:59:12;95680.00;;;16.71;100.00
41686;BME280;27370;42.764;23.432;2023-07-28T06:01:38;95681.53;;;16.94;100.00
41686;BME280;27370;42.764;23.432;2023-07-28T06:04:22;95664.88;;;16.79;100.00
41686;BME280;27370;42.764;23.432;2023-07-28T06:06:50;95676.44;;;16.83;100.00
41686;BME280;27370;42.764;23.432;2023-07-28T06:09:16;95667.78;;;16.84;100.00
41686;BME280;27370;42.764;23.432;2023-07-28T06:11:44;95672.09;;;17.17;100.00
41686;BME280;27370;42.764;23.432;2023-07-28T06:14:09;95666.13;;;17.40;100.00
41686;BME280;27370;42.764;23.432;2023-07-28T06:16:36;95664.47;;;17.73;100.00
41686;BME280;27370;42.764;23.432;2023-07-28T06:19:01;95658.78;;;17.99;100.00
41686;BME280;27370;42.764;23.432;2023-07-28T06:21:27;95660.72;;;17.89;100.00
41686;BME280;27370;42.764;23.432;2023-07-28T06:23:53;95664.41;;;17.95;100.00
41686;BME280;27370;42.764;23.432;2023-07-28T06:26:18;95665.53;;;18.44;100.00
41686;BME280;27370;42.764;23.432;2023-07-28T06:28:44;95661.56;;;18.45;100.00
41686;BME280;27370;42.764;23.432;2023-07-28T06:31:10;95665.84;;;18.46;100.00
41686;BME280;27370;42.764;23.432;2023-07-28T06:33:36;95663.28;;;18.60;100.00
41686;BME280;27370;42.764;23.432;2023-07-28T06:36:03;95667.69;;;18.40;100.00
41686;BME280;27370;42.764;23.432;2023-07-28T06:38:28;95662.34;;;18.45;100.00
41686;BME280;27370;42.764;23.432;2023-07-28T06:40:54;95662.22;;;18.76;100.00
41686;BME280;27370;42.764;23.432;2023-07-28T06:43:20;95650.00;;;19.05;100.00
41686;BME280;27370;42.764;23.432;2023-07-28T06:45:47;95649.03;;;19.26;100.00
41686;BME280;27370;42.764;23.432;2023-07-28T06:48:16;95650.13;;;19.71;100.00
41686;BME280;27370;42.764;23.432;2023-07-28T06:50:41;95650.16;;;19.95;100.00
41686;BME280;27370;42.764;23.432;2023-07-28T06:53:07;95656.41;;;20.19;100.00
41686;BME280;27370;42.764;23.432;2023-07-28T06:55:32;95646.94;;;20.20;100.00
41686;BME280;27370;42.764;23.432;2023-07-28T06:57:58;95652.94;;;20.33;100.00
41686;BME280;27370;42.764;23.432;2023-07-28T07:00:23;95647.34;;;20.04;100.00
41686;BME280;27370;42.764;23.432;2023-07-28T07:02:49;95644.88;;;20.30;100.00
41686;BME280;27370;42.764;23.432;2023-07-28T07:05:14;95648.56;;;20.03;100.00
41686;BME280;27370;42.764;23.432;2023-07-28T07:07:40;95653.53;;;20.13;100.00
41686;BME280;27370;42.764;23.432;2023-07-28T07:10:06;95654.47;;;20.34;100.00
41686;BME280;27370;42.764;23.432;2023-07-28T07:12:32;95652.09;;;20.51;100.00
41686;BME280;27370;42.764;23.432;2023-07-28T07:14:58;95643.59;;;20.78;100.00
41686;BME280;27370;42.764;23.432;2023-07-28T07:17:24;95636.34;;;21.05;100.00
41686;BME280;27370;42.764;23.432;2023-07-28T07:19:49;95639.47;;;21.13;100.00
41686;BME280;27370;42.764;23.432;2023-07-28T07:22:15;95641.19;;;21.10;100.00
41686;BME280;27370;42.764;23.432;2023-07-28T07:24:40;95651.31;;;21.04;100.00
41686;BME280;27370;42.764;23.432;2023-07-28T07:27:06;95655.44;;;21.08;100.00
41686;BME280;27370;42.764;23.432;2023-07-28T07:29:31;95654.47;;;20.97;100.00
41686;BME280;27370;42.764;23.432;2023-07-28T07:31:57;95653.50;;;21.00;100.00
41686;BME280;27370;42.764;23.432;2023-07-28T07:34:23;95650.22;;;21.25;100.00
41686;BME280;27370;42.764;23.432;2023-07-28T07:36:49;95650.97;;;21.40;100.00
41686;BME280;27370;42.764;23.432;2023-07-28T07:39:15;95658.84;;;21.48;100.00
41686;BME280;27370;42.764;23.432;2023-07-28T07:41:40;95659.16;;;21.35;100.00
41686;BME280;27370;42.764;23.432;2023-07-28T07:44:06;95643.72;;;20.84;100.00
41686;BME280;27370;42.764;23.432;2023-07-28T07:46:32;95662.75;;;21.26;100.00
41686;BME280;27370;42.764;23.432;2023-07-28T07:48:57;95653.97;;;20.98;100.00
41686;BME280;27370;42.764;23.432;2023-07-28T07:51:23;95659.63;;;21.33;100.00
41686;BME280;27370;42.764;23.432;2023-07-28T07:53:48;95663.53;;;21.42;100.00
41686;BME280;27370;42.764;23.432;2023-07-28T07:56:14;95646.69;;;21.10;100.00
41686;BME280;27370;42.764;23.432;2023-07-28T07:58:40;95647.94;;;21.09;100.00
41686;BME280;27370;42.764;23.432;2023-07-28T08:01:05;95658.56;;;21.16;100.00
41686;BME280;27370;42.764;23.432;2023-07-28T08:03:31;95642.50;;;21.15;100.00
41686;BME280;27370;42.764;23.432;2023-07-28T08:05:57;95644.22;;;21.27;100.00
41686;BME280;27370;42.764;23.432;2023-07-28T08:08:23;95653.72;;;21.55;100.00
41686;BME280;27370;42.764;23.432;2023-07-28T08:10:49;95646.00;;;21.74;100.00
41686;BME280;27370;42.764;23.432;2023-07-28T08:13:15;95644.88;;;22.01;100.00
41686;BME280;27370;42.764;23.432;2023-07-28T08:15:44;95645.41;;;22.20;100.00
41686;BME280;27370;42.764;23.432;2023-07-28T08:18:11;95647.06;;;22.32;100.00
41686;BME280;27370;42.764;23.432;2023-07-28T08:20:36;95630.72;;;22.28;100.00
41686;BME280;27370;42.764;23.432;2023-07-28T08:23:02;95633.69;;;22.25;100.00
41686;BME280;27370;42.764;23.432;2023-07-28T08:25:27;95625.41;;;22.05;100.00
41686;BME280;27370;42.764;23.432;2023-07-28T08:27:53;95624.50;;;22.13;100.00
41686;BME280;27370;42.764;23.432;2023-07-28T08:30:18;95633.59;;;22.40;100.00
41686;BME280;27370;42.764;23.432;2023-07-28T08:32:44;95625.41;;;22.66;100.00
41686;BME280;27370;42.764;23.432;2023-07-28T08:35:10;95633.59;;;22.60;100.00
41686;BME280;27370;42.764;23.432;2023-07-28T08:37:35;95633.78;;;22.77;100.00
41686;BME280;27370;42.764;23.432;2023-07-28T08:40:02;95633.25;;;22.73;100.00
41686;BME280;27370;42.764;23.432;2023-07-28T08:42:35;95635.50;;;22.95;100.00
41686;BME280;27370;42.764;23.432;2023-07-28T08:45:02;95627.13;;;23.09;100.00
41686;BME280;27370;42.764;23.432;2023-07-28T08:47:31;95616.63;;;23.45;100.00
41686;BME280;27370;42.764;23.432;2023-07-28T08:49:57;95624.06;;;23.65;100.00
41686;BME280;27370;42.764;23.432;2023-07-28T08:52:23;95623.19;;;23.79;100.00
41686;BME280;27370;42.764;23.432;2023-07-28T08:54:50;95613.81;;;23.71;100.00
41686;BME280;27370;42.764;23.432;2023-07-28T08:57:15;95617.41;;;23.82;100.00
41686;BME280;27370;42.764;23.432;2023-07-28T08:59:41;95602.47;;;24.06;100.00
41686;BME280;27370;42.764;23.432;2023-07-28T09:02:14;95611.41;;;24.32;100.00
41686;BME280;27370;42.764;23.432;2023-07-28T09:04:41;95604.88;;;24.35;100.00
41686;BME280;27370;42.764;23.432;2023-07-28T09:07:07;95609.41;;;24.38;100.00
41686;BME280;27370;42.764;23.432;2023-07-28T09:09:33;95591.88;;;24.53;100.00
41686;BME280;27370;42.764;23.432;2023-07-28T09:12:00;95592.63;;;24.59;100.00
41686;BME280;27370;42.764;23.432;2023-07-28T09:14:26;95584.63;;;24.72;100.00
41686;BME280;27370;42.764;23.432;2023-07-28T09:16:52;95574.22;;;24.45;100.00
41686;BME280;27370;42.764;23.432;2023-07-28T09:19:20;95580.09;;;24.74;100.00
41686;BME280;27370;42.764;23.432;2023-07-28T09:21:57;95570.78;;;24.72;100.00
41686;BME280;27370;42.764;23.432;2023-07-28T09:24:30;95573.16;;;24.31;100.00
41686;BME280;27370;42.764;23.432;2023-07-28T09:26:58;95570.97;;;24.52;100.00
41686;BME280;27370;42.764;23.432;2023-07-28T09:29:23;95565.19;;;24.50;100.00
41686;BME280;27370;42.764;23.432;2023-07-28T09:31:51;95552.09;;;24.61;100.00
41686;BME280;27370;42.764;23.432;2023-07-28T09:34:27;95549.88;;;24.77;100.00
41686;BME280;27370;42.764;23.432;2023-07-28T09:36:54;95547.69;;;25.14;100.00
41686;BME280;27370;42.764;23.432;2023-07-28T09:39:20;95542.13;;;25.09;100.00
41686;BME280;27370;42.764;23.432;2023-07-28T09:41:46;95533.81;;;25.20;100.00
41686;BME280;27370;42.764;23.432;2023-07-28T09:44:13;95526.75;;;25.30;100.00
41686;BME280;27370;42.764;23.432;2023-07-28T09:46:57;95527.72;;;25.60;100.00
41686;BME280;27370;42.764;23.432;2023-07-28T09:49:29;95529.97;;;25.73;100.00
41686;BME280;27370;42.764;23.432;2023-07-28T09:52:00;95521.91;;;25.75;100.00
41686;BME280;27370;42.764;23.432;2023-07-28T09:54:29;95520.16;;;25.72;100.00
41686;BME280;27370;42.764;23.432;2023-07-28T09:56:56;95527.44;;;25.86;100.00
41686;BME280;27370;42.764;23.432;2023-07-28T09:59:29;95521.28;;;26.10;100.00
41686;BME280;27370;42.764;23.432;2023-07-28T10:01:58;95524.22;;;26.23;100.00
41686;BME280;27370;42.764;23.432;2023-07-28T10:04:23;95515.97;;;26.12;100.00
41686;BME280;27370;42.764;23.432;2023-07-28T10:06:51;95519.19;;;26.22;100.00
41686;BME280;27370;42.764;23.432;2023-07-28T10:09:24;95513.84;;;25.72;100.00
41686;BME280;27370;42.764;23.432;2023-07-28T10:11:50;95519.59;;;25.90;100.00
41686;BME280;27370;42.764;23.432;2023-07-28T10:14:44;95510.41;;;26.12;100.00
41686;BME280;27370;42.764;23.432;2023-07-28T10:17:17;95511.63;;;26.22;100.00
41686;BME280;27370;42.764;23.432;2023-07-28T10:19:43;95509.84;;;26.31;100.00
41686;BME280;27370;42.764;23.432;2023-07-28T10:22:11;95508.50;;;26.48;100.00
41686;BME280;27370;42.764;23.432;2023-07-28T10:24:58;95510.88;;;26.28;100.00
41686;BME280;27370;42.764;23.432;2023-07-28T10:30:03;95507.59;;;26.70;100.00
41686;BME280;27370;42.764;23.432;2023-07-28T10:32:58;95502.31;;;26.67;100.00
41686;BME280;27370;42.764;23.432;2023-07-28T10:35:26;95496.28;;;26.98;100.00
41686;BME280;27370;42.764;23.432;2023-07-28T10:37:55;95486.38;;;27.08;100.00
41686;BME280;27370;42.764;23.432;2023-07-28T10:42:57;95484.81;;;27.37;100.00
41686;BME280;27370;42.764;23.432;2023-07-28T10:45:24;95487.50;;;27.24;100.00
41686;BME280;27370;42.764;23.432;2023-07-28T10:47:52;95484.03;;;27.42;100.00
41686;BME280;27370;42.764;23.432;2023-07-28T10:50:18;95475.50;;;27.59;100.00
41686;BME280;27370;42.764;23.432;2023-07-28T10:52:45;95480.91;;;27.76;100.00
41686;BME280;27370;42.764;23.432;2023-07-28T10:55:20;95475.41;;;27.70;100.00
41686;BME280;27370;42.764;23.432;2023-07-28T10:57:46;95473.38;;;27.71;100.00
41686;BME280;27370;42.764;23.432;2023-07-28T11:00:16;95462.22;;;27.95;100.00
41686;BME280;27370;42.764;23.432;2023-07-28T11:02:46;95467.19;;;28.02;100.00
41686;BME280;27370;42.764;23.432;2023-07-28T11:05:30;95458.16;;;28.15;100.00
41686;BME280;27370;42.764;23.432;2023-07-28T11:08:02;95455.28;;;27.83;100.00
41686;BME280;27370;42.764;23.432;2023-07-28T11:10:31;95446.13;;;27.88;100.00
41686;BME280;27370;42.764;23.432;2023-07-28T11:12:59;95451.09;;;28.14;100.00
41686;BME280;27370;42.764;23.432;2023-07-28T11:15:25;95458.75;;;27.89;100.00
41686;BME280;27370;42.764;23.432;2023-07-28T11:17:52;95447.66;;;28.08;100.00
41686;BME280;27370;42.764;23.432;2023-07-28T11:20:22;95444.69;;;28.00;100.00
41686;BME280;27370;42.764;23.432;2023-07-28T11:23:02;95441.22;;;28.51;100.00
41686;BME280;27370;42.764;23.432;2023-07-28T11:25:29;95444.59;;;28.62;96.88
41686;BME280;27370;42.764;23.432;2023-07-28T11:27:56;95438.06;;;28.03;98.77
41686;BME280;27370;42.764;23.432;2023-07-28T11:30:23;95434.25;;;28.25;98.40
41686;BME280;27370;42.764;23.432;2023-07-28T11:32:50;95428.22;;;28.40;100.00
41686;BME280;27370;42.764;23.432;2023-07-28T11:35:17;95419.63;;;28.57;100.00
41686;BME280;27370;42.764;23.432;2023-07-28T11:37:46;95407.19;;;28.90;100.00
41686;BME280;27370;42.764;23.432;2023-07-28T11:40:13;95421.09;;;29.35;100.00
41686;BME280;27370;42.764;23.432;2023-07-28T11:42:41;95414.09;;;29.15;95.56
41686;BME280;27370;42.764;23.432;2023-07-28T11:45:07;95418.81;;;29.07;98.03
41686;BME280;27370;42.764;23.432;2023-07-28T11:47:33;95409.88;;;28.95;100.00
41686;BME280;27370;42.764;23.432;2023-07-28T11:49:59;95400.03;;;29.08;94.72
41686;BME280;27370;42.764;23.432;2023-07-28T11:52:34;95403.38;;;28.74;94.66
41686;BME280;27370;42.764;23.432;2023-07-28T11:55:04;95421.66;;;28.56;94.18
41686;BME280;27370;42.764;23.432;2023-07-28T11:57:31;95409.47;;;28.73;94.88
41686;BME280;27370;42.764;23.432;2023-07-28T11:59:57;95406.44;;;28.57;95.41
41686;BME280;27370;42.764;23.432;2023-07-28T12:02:31;95392.44;;;29.21;100.00
41686;BME280;27370;42.764;23.432;2023-07-28T12:04:57;95397.16;;;29.26;98.42
41686;BME280;27370;42.764;23.432;2023-07-28T12:07:31;95404.47;;;29.56;91.62
41686;BME280;27370;42.764;23.432;2023-07-28T12:09:57;95389.34;;;29.65;92.62
41686;BME280;27370;42.764;23.432;2023-07-28T12:12:28;95384.00;;;29.53;96.21
41686;BME280;27370;42.764;23.432;2023-07-28T12:14:57;95390.81;;;29.92;94.00
41686;BME280;27370;42.764;23.432;2023-07-28T12:17:29;95387.63;;;29.62;90.66
41686;BME280;27370;42.764;23.432;2023-07-28T12:20:06;95379.84;;;29.94;100.00
41686;BME280;27370;42.764;23.432;2023-07-28T12:22:43;95376.53;;;29.82;94.94
41686;BME280;27370;42.764;23.432;2023-07-28T12:25:10;95380.22;;;29.77;88.15
41686;BME280;27370;42.764;23.432;2023-07-28T12:27:36;95376.78;;;29.32;87.33
41686;BME280;27370;42.764;23.432;2023-07-28T12:30:03;95369.81;;;29.38;90.53
41686;BME280;27370;42.764;23.432;2023-07-28T12:32:28;95364.34;;;29.72;94.85
41686;BME280;27370;42.764;23.432;2023-07-28T12:34:54;95358.47;;;29.97;94.15
41686;BME280;27370;42.764;23.432;2023-07-28T12:37:20;95365.34;;;30.30;96.90
41686;BME280;27370;42.764;23.432;2023-07-28T12:39:47;95369.66;;;30.52;92.45
41686;BME280;27370;42.764;23.432;2023-07-28T12:42:13;95359.22;;;30.65;92.23
41686;BME280;27370;42.764;23.432;2023-07-28T12:44:41;95352.88;;;30.31;87.63
41686;BME280;27370;42.764;23.432;2023-07-28T12:47:07;95347.19;;;30.57;92.83
41686;BME280;27370;42.764;23.432;2023-07-28T12:49:32;95352.38;;;30.74;87.03
41686;BME280;27370;42.764;23.432;2023-07-28T12:52:00;95347.03;;;31.04;92.01
41686;BME280;27370;42.764;23.432;2023-07-28T12:54:28;95350.22;;;30.80;87.13